Time;durP1;ratioP1;P1;durP2;ratioP2;P2;SDS_P1;SDS_P2;PMS_P1;PMS_P2;Temp;Humidity;BMP_temperature;BMP_pressure;BME280_temperature;BME280_humidity;BME280_pressure;Samples;Min_cycle;Max_cycle;Signal;HPM_P1;HPM_P2
2023/03/03 00:01:42;;;;;;;130.65;62.45;;;;;;;-0.78;76.58;100611.25;1461615;88;21349;-82
2023/03/03 00:04:09;;;;;;;139.60;65.15;;;;;;;-0.78;76.28;100607.81;1458433;89;21497;-81
2023/03/03 00:06:35;;;;;;;128.72;62.45;;;;;;;-0.79;76.57;100604.38;1463777;89;21327;-83
2023/03/03 00:09:01;;;;;;;143.80;67.67;;;;;;;-0.79;77.37;100600.94;1455882;89;21371;-79
2023/03/03 00:11:27;;;;;;;139.00;66.12;;;;;;;-0.78;76.87;100611.25;1459859;88;21409;-81
2023/03/03 00:13:56;;;;;;;131.43;62.78;;;;;;;-0.78;76.75;100606.52;1456458;89;22258;-80
2023/03/03 00:16:30;;;;;;;131.35;63.48;;;;;;;-0.79;76.72;100603.55;1466849;89;21627;-81
2023/03/03 00:18:57;;;;;;;134.27;62.62;;;;;;;-0.79;76.48;100604.38;1465680;88;21407;-81
2023/03/03 00:21:30;;;;;;;128.82;62.88;;;;;;;-0.80;76.82;100596.67;1462261;89;22317;-81
2023/03/03 00:24:23;;;;;;;129.32;63.33;;;;;;;-0.80;76.98;100597.51;1463171;89;21488;-82
2023/03/03 00:26:54;;;;;;;129.15;57.65;;;;;;;-0.84;77.63;100597.70;1469943;88;21599;-82
2023/03/03 00:29:38;;;;;;;118.60;54.25;;;;;;;-0.87;77.68;100595.25;1461928;89;22287;-82
2023/03/03 00:32:25;;;;;;;119.82;57.33;;;;;;;-0.91;77.48;100596.69;1461695;89;22338;-82
2023/03/03 00:34:54;;;;;;;120.53;55.23;;;;;;;-0.91;76.73;100588.06;1464606;88;22403;-83
2023/03/03 00:37:34;;;;;;;122.02;61.50;;;;;;;-0.91;76.74;100590.66;1467554;88;21378;-83
2023/03/03 00:40:24;;;;;;;124.92;56.25;;;;;;;-0.92;75.79;100592.42;1473989;89;21341;-83
2023/03/03 00:42:54;;;;;;;125.00;60.70;;;;;;;-0.94;75.97;100587.74;1457128;89;21443;-82
2023/03/03 00:45:28;;;;;;;117.47;56.63;;;;;;;-0.94;76.03;100592.94;1471526;89;21377;-81
2023/03/03 00:47:55;;;;;;;125.55;56.58;;;;;;;-0.93;75.67;100592.02;1469077;89;21541;-81
2023/03/03 00:50:34;;;;;;;131.52;60.28;;;;;;;-0.94;75.59;100589.50;1453089;88;22360;-82
2023/03/03 00:53:08;;;;;;;125.90;60.33;;;;;;;-0.95;75.33;100587.80;1464041;89;21333;-82
2023/03/03 00:55:35;;;;;;;122.47;60.78;;;;;;;-0.95;74.70;100582.60;1466819;89;21481;-83
2023/03/03 00:58:03;;;;;;;125.97;58.13;;;;;;;-0.96;74.41;100584.36;1467723;88;21341;-83
2023/03/03 01:00:29;;;;;;;121.02;61.63;;;;;;;-0.96;74.69;100584.36;1459196;89;21392;-81
2023/03/03 01:02:56;;;;;;;117.65;54.80;;;;;;;-1.01;74.87;100581.12;1464146;89;21444;-83
2023/03/03 01:05:22;;;;;;;115.35;56.42;;;;;;;-1.03;75.11;100582.97;1466398;89;21362;-83
2023/03/03 01:07:48;;;;;;;103.87;53.63;;;;;;;-1.04;74.55;100587.77;1465942;89;21540;-83
2023/03/03 01:10:15;;;;;;;115.70;52.98;;;;;;;-1.08;75.67;100579.73;1443666;89;21378;-81
2023/03/03 01:12:41;;;;;;;98.58;50.30;;;;;;;-1.09;75.34;100574.16;1460206;88;21563;-82
2023/03/03 01:15:11;;;;;;;113.40;53.42;;;;;;;-1.16;77.25;100574.04;1444471;89;21363;-83
2023/03/03 01:17:38;;;;;;;102.05;48.30;;;;;;;-1.21;77.18;100577.30;1456421;88;21415;-83
2023/03/03 01:20:08;;;;;;;104.32;51.75;;;;;;;-1.27;77.06;100574.97;1467273;89;21422;-83
2023/03/03 01:22:34;;;;;;;107.17;49.83;;;;;;;-1.33;78.38;100573.95;1461361;88;22250;-83
2023/03/03 01:25:02;;;;;;;93.70;44.77;;;;;;;-1.36;77.13;100573.17;1463649;88;22413;-83
2023/03/03 01:27:30;;;;;;;102.85;51.35;;;;;;;-1.38;77.34;100571.58;1465492;89;21356;-83
2023/03/03 01:29:57;;;;;;;97.02;48.63;;;;;;;-1.41;76.98;100566.50;1467606;89;21400;-81
2023/03/03 01:32:24;;;;;;;101.53;46.68;;;;;;;-1.41;76.64;100565.20;1466061;89;21540;-81
2023/03/03 01:34:51;;;;;;;93.87;45.00;;;;;;;-1.43;77.03;100568.34;1460312;88;21378;-79
2023/03/03 01:37:17;;;;;;;105.20;49.23;;;;;;;-1.42;76.75;100562.22;1473422;88;21238;-81
2023/03/03 01:39:54;;;;;;;96.37;48.70;;;;;;;-1.43;77.25;100555.36;1457783;89;21521;-80
2023/03/03 01:42:21;;;;;;;104.20;50.28;;;;;;;-1.46;77.46;100548.55;1467421;88;21482;-81
2023/03/03 01:44:48;;;;;;;110.68;52.85;;;;;;;-1.47;77.28;100552.03;1452628;89;21444;-81
2023/03/03 01:47:25;;;;;;;108.63;51.90;;;;;;;-1.48;76.57;100555.55;1465485;89;21452;-82
2023/03/03 01:50:01;;;;;;;113.60;52.13;;;;;;;-1.49;76.37;100551.28;1466564;88;22294;-81
2023/03/03 01:52:39;;;;;;;108.40;54.93;;;;;;;-1.50;76.66;100552.17;1447197;89;21533;-81
2023/03/03 01:55:25;;;;;;;108.05;52.38;;;;;;;-1.49;75.51;100553.88;1465142;88;21558;-82
2023/03/03 01:58:08;;;;;;;106.45;51.68;;;;;;;-1.51;75.45;100554.39;1461125;88;21364;-81
2023/03/03 02:00:39;;;;;;;120.90;59.08;;;;;;;-1.51;75.35;100552.25;1454473;88;21959;-81
2023/03/03 02:03:06;;;;;;;111.37;53.87;;;;;;;-1.51;75.17;100558.28;1460303;89;22406;-80
2023/03/03 02:05:34;;;;;;;119.97;56.92;;;;;;;-1.52;75.65;100556.61;1464552;89;21474;-81
2023/03/03 02:08:01;;;;;;;123.30;57.10;;;;;;;-1.52;75.73;100552.71;1462291;89;21385;-81
2023/03/03 02:10:28;;;;;;;122.10;57.95;;;;;;;-1.50;76.18;100550.88;1453711;89;21570;-81
2023/03/03 02:12:56;;;;;;;108.90;51.53;;;;;;;-1.50;77.33;100555.22;1461955;89;22266;-80
2023/03/03 02:15:36;;;;;;;109.37;51.33;;;;;;;-1.51;77.05;100551.80;1459037;89;21511;-81
2023/03/03 02:18:07;;;;;;;107.65;51.20;;;;;;;-1.53;77.05;100551.47;1460077;89;21393;-81
2023/03/03 02:20:57;;;;;;;104.70;52.35;;;;;;;-1.56;78.18;100557.63;1465946;89;22563;-81
2023/03/03 02:23:32;;;;;;;103.00;47.73;;;;;;;-1.60;79.06;100558.69;1466277;88;21364;-80
2023/03/03 02:26:12;;;;;;;111.77;53.08;;;;;;;-1.64;78.85;100557.12;1460877;88;21554;-81
2023/03/03 02:28:40;;;;;;;108.17;53.98;;;;;;;-1.69;79.02;100557.34;1460554;88;21436;-80
2023/03/03 02:31:12;;;;;;;105.70;52.48;;;;;;;-1.73;78.77;100553.17;1452484;89;21331;-81
2023/03/03 02:33:40;;;;;;;97.10;50.50;;;;;;;-1.73;78.14;100549.74;1460270;89;21297;-81
2023/03/03 02:36:10;;;;;;;94.92;48.63;;;;;;;-1.79;79.55;100540.47;1463551;88;21510;-81
2023/03/03 02:38:42;;;;;;;100.78;47.58;;;;;;;-1.83;79.62;100541.06;1461747;89;21452;-81
2023/03/03 02:41:14;;;;;;;114.10;52.58;;;;;;;-1.87;79.34;100534.76;1460852;89;21459;-81
2023/03/03 02:44:06;;;;;;;94.58;47.35;;;;;;;-1.90;79.04;100537.06;1461812;89;21348;-82
2023/03/03 02:46:36;;;;;;;94.85;46.83;;;;;;;-1.92;79.29;100537.57;1465031;89;21355;-80
2023/03/03 02:49:05;;;;;;;98.82;46.58;;;;;;;-1.93;78.50;100536.33;1460760;88;21547;-80
2023/03/03 02:51:31;;;;;;;95.12;46.50;;;;;;;-1.93;78.33;100534.56;1463002;89;21289;-81
2023/03/03 02:53:58;;;;;;;103.40;48.83;;;;;;;-1.94;77.97;100535.48;1456621;89;22428;-79
2023/03/03 02:56:25;;;;;;;100.80;46.18;;;;;;;-1.94;77.17;100537.24;1460503;88;21378;-81
2023/03/03 02:58:51;;;;;;;105.12;49.18;;;;;;;-1.95;77.21;100537.70;1463838;88;21445;-81
2023/03/03 03:01:18;;;;;;;102.07;52.50;;;;;;;-1.94;77.21;100534.19;1453398;89;21407;-80
2023/03/03 03:03:44;;;;;;;104.15;47.30;;;;;;;-1.94;77.56;100534.19;1460792;89;21526;-81
2023/03/03 03:06:11;;;;;;;101.85;47.45;;;;;;;-1.92;77.33;100524.60;1465140;88;22281;-81
2023/03/03 03:08:37;;;;;;;93.72;46.70;;;;;;;-1.91;77.47;100528.87;1465500;89;21341;-81
2023/03/03 03:11:07;;;;;;;96.87;47.62;;;;;;;-1.90;77.50;100527.98;1465485;88;21562;-82
2023/03/03 03:13:33;;;;;;;88.60;43.42;;;;;;;-1.93;78.64;100525.48;1459549;89;22281;-82
2023/03/03 03:16:00;;;;;;;89.75;43.98;;;;;;;-1.97;79.44;100524.41;1465914;88;21445;-81
2023/03/03 03:18:27;;;;;;;88.33;42.80;;;;;;;-2.00;79.10;100517.59;1468010;89;21355;-81
2023/03/03 03:20:53;;;;;;;98.07;46.25;;;;;;;-2.03;78.86;100517.73;1468303;89;21867;-81
2023/03/03 03:23:23;;;;;;;100.62;47.55;;;;;;;-2.06;78.93;100513.97;1468308;89;21429;-81
2023/03/03 03:25:49;;;;;;;86.00;42.17;;;;;;;-2.07;78.85;100507.95;1466782;89;21392;-80
2023/03/03 03:28:17;;;;;;;88.00;43.15;;;;;;;-2.07;78.49;100509.70;1454099;89;21297;-81
2023/03/03 03:30:44;;;;;;;84.32;41.50;;;;;;;-2.08;78.30;100505.41;1468290;89;21470;-81
2023/03/03 03:33:11;;;;;;;92.40;44.88;;;;;;;-2.09;78.88;100505.03;1469870;89;22463;-81
2023/03/03 03:35:39;;;;;;;99.07;46.53;;;;;;;-2.10;78.57;100505.91;1468298;89;21349;-80
2023/03/03 03:38:05;;;;;;;92.53;44.25;;;;;;;-2.11;78.67;100499.05;1461096;89;22273;-80
2023/03/03 03:40:31;;;;;;;93.75;44.65;;;;;;;-2.12;79.13;100502.56;1457533;88;21496;-80
2023/03/03 03:42:57;;;;;;;93.33;44.73;;;;;;;-2.13;79.81;100500.43;1462916;89;21525;-80
2023/03/03 03:45:24;;;;;;;101.87;45.90;;;;;;;-2.12;79.71;100496.92;1461594;89;22236;-81
2023/03/03 03:47:50;;;;;;;93.95;44.77;;;;;;;-2.10;79.26;100494.24;1455655;89;22451;-80
2023/03/03 03:50:16;;;;;;;100.10;48.25;;;;;;;-2.11;79.75;100490.81;1471142;89;21348;-81
2023/03/03 03:52:43;;;;;;;105.22;48.78;;;;;;;-2.13;79.85;100488.77;1466260;88;21406;-82
2023/03/03 03:55:10;;;;;;;97.85;47.17;;;;;;;-2.14;79.68;100487.52;1467314;89;21369;-83
2023/03/03 03:57:36;;;;;;;98.15;46.37;;;;;;;-2.15;79.15;100481.95;1456362;89;21370;-83
2023/03/03 04:00:04;;;;;;;106.45;47.53;;;;;;;-2.16;79.26;100486.73;1459566;89;21430;-79
2023/03/03 04:02:31;;;;;;;93.82;46.35;;;;;;;-2.16;79.18;100486.73;1463462;89;21422;-80
2023/03/03 04:04:57;;;;;;;91.67;43.38;;;;;;;-2.20;79.21;100481.30;1464584;89;21592;-80
2023/03/03 04:07:23;;;;;;;85.77;40.75;;;;;;;-2.24;80.07;100484.48;1474734;89;21606;-80
2023/03/03 04:09:49;;;;;;;81.87;40.52;;;;;;;-2.27;79.66;100478.97;1468582;89;21282;-81
2023/03/03 04:12:16;;;;;;;81.55;41.05;;;;;;;-2.25;79.73;100479.34;1474488;89;21393;-79
2023/03/03 04:14:42;;;;;;;80.77;38.50;;;;;;;-2.28;79.69;100480.31;1460368;88;21504;-80
2023/03/03 04:17:14;;;;;;;84.97;40.78;;;;;;;-2.32;80.08;100478.31;1461987;89;22243;-80
2023/03/03 04:19:40;;;;;;;71.97;37.48;;;;;;;-2.37;80.56;100481.55;1460632;88;21517;-80
2023/03/03 04:22:06;;;;;;;83.87;40.17;;;;;;;-2.43;80.77;100484.86;1464275;88;22257;-80
2023/03/03 04:24:33;;;;;;;84.30;40.55;;;;;;;-2.47;80.50;100484.15;1466115;89;21348;-80
2023/03/03 04:26:59;;;;;;;80.70;38.17;;;;;;;-2.54;81.07;100479.65;1468721;89;22405;-81
2023/03/03 04:29:26;;;;;;;87.33;36.58;;;;;;;-2.54;80.06;100481.41;1470269;89;21370;-82
2023/03/03 04:31:52;;;;;;;75.90;36.93;;;;;;;-2.58;82.04;100475.51;1461952;89;21564;-81
2023/03/03 04:34:18;;;;;;;81.92;39.03;;;;;;;-2.59;80.81;100480.31;1458801;89;22272;-81
2023/03/03 04:36:44;;;;;;;87.10;39.20;;;;;;;-2.57;80.27;100479.77;1471611;89;21596;-81
2023/03/03 04:39:11;;;;;;;84.05;40.92;;;;;;;-2.56;80.09;100476.73;1470237;89;21378;-81
2023/03/03 04:41:38;;;;;;;85.40;38.23;;;;;;;-2.55;79.51;100471.95;1460528;88;21453;-81
2023/03/03 04:44:04;;;;;;;77.40;38.05;;;;;;;-2.52;79.34;100467.94;1456104;89;22271;-81
2023/03/03 04:46:30;;;;;;;76.28;37.08;;;;;;;-2.52;79.97;100471.83;1461124;88;21437;-81
2023/03/03 04:48:56;;;;;;;79.87;39.35;;;;;;;-2.55;79.95;100467.61;1462937;88;21385;-81
2023/03/03 04:51:23;;;;;;;79.95;38.48;;;;;;;-2.55;79.07;100464.18;1460910;88;22325;-81
2023/03/03 04:53:49;;;;;;;76.02;39.00;;;;;;;-2.57;78.77;100465.98;1461878;89;21377;-82
2023/03/03 04:56:16;;;;;;;86.97;41.90;;;;;;;-2.61;78.61;100469.16;1461737;89;21474;-80
2023/03/03 04:58:42;;;;;;;78.78;38.38;;;;;;;-2.62;78.19;100464.89;1466825;88;22399;-81
2023/03/03 05:01:12;;;;;;;80.70;40.30;;;;;;;-2.60;78.19;100471.29;1468863;89;21385;-81
2023/03/03 05:03:39;;;;;;;80.55;38.80;;;;;;;-2.58;78.60;100469.48;1467854;89;21400;-80
2023/03/03 05:06:06;;;;;;;90.87;42.70;;;;;;;-2.59;78.67;100475.13;1470347;89;21419;-81
2023/03/03 05:08:33;;;;;;;78.40;38.53;;;;;;;-2.59;78.60;100470.38;1461275;88;21653;-79
2023/03/03 05:11:00;;;;;;;78.05;38.80;;;;;;;-2.59;78.79;100478.15;1462995;88;21400;-82
2023/03/03 05:13:26;;;;;;;81.00;39.10;;;;;;;-2.62;79.24;100469.20;1463492;88;22391;-81
2023/03/03 05:15:55;;;;;;;72.62;37.35;;;;;;;-2.64;79.00;100468.45;1458716;89;21393;-81
2023/03/03 05:18:22;;;;;;;70.85;35.83;;;;;;;-2.67;79.95;100468.58;1469038;89;22192;-79
2023/03/03 05:20:50;;;;;;;70.10;35.58;;;;;;;-2.68;80.17;100469.46;1466759;89;21628;-82
2023/03/03 05:23:17;;;;;;;71.53;35.08;;;;;;;-2.70;80.68;100462.20;1464614;89;21363;-81
2023/03/03 05:25:46;;;;;;;76.37;37.23;;;;;;;-2.73;81.10;100466.62;1467586;89;21391;-81
2023/03/03 05:28:12;;;;;;;80.22;39.55;;;;;;;-2.78;81.26;100476.31;1465693;88;21296;-82
2023/03/03 05:30:39;;;;;;;76.45;40.05;;;;;;;-2.77;80.04;100479.75;1468018;88;22418;-80
2023/03/03 05:33:05;;;;;;;78.12;37.42;;;;;;;-2.77;79.69;100479.28;1457931;88;21371;-82
2023/03/03 05:35:32;;;;;;;89.67;42.53;;;;;;;-2.74;79.23;100475.27;1466999;88;21503;-82
2023/03/03 05:37:59;;;;;;;89.03;41.33;;;;;;;-2.66;78.85;100479.32;1463704;88;22375;-82
2023/03/03 05:40:26;;;;;;;117.57;43.85;;;;;;;-2.66;79.16;100480.16;1461241;88;21414;-81
2023/03/03 05:42:53;;;;;;;105.65;50.33;;;;;;;-2.58;79.03;100490.22;1456478;89;21415;-79
2023/03/03 05:45:20;;;;;;;95.35;46.80;;;;;;;-2.54;78.66;100486.59;1458297;89;21632;-80
2023/03/03 05:47:47;;;;;;;93.25;45.60;;;;;;;-2.47;79.33;100486.73;1460538;89;21400;-80
2023/03/03 05:50:15;;;;;;;108.00;47.27;;;;;;;-2.40;79.34;100489.45;1467429;89;21319;-79
2023/03/03 05:52:42;;;;;;;94.52;43.68;;;;;;;-2.34;79.62;100494.37;1450397;89;21533;-80
2023/03/03 05:55:10;;;;;;;94.25;45.10;;;;;;;-2.28;79.33;100500.59;1468620;88;21414;-80
2023/03/03 05:57:38;;;;;;;97.47;44.50;;;;;;;-2.21;78.68;100496.48;1460147;88;21326;-80
2023/03/03 06:00:07;;;;;;;92.40;43.23;;;;;;;-2.19;79.28;100502.42;1466552;89;22005;-80
2023/03/03 06:02:52;;;;;;;82.33;40.05;;;;;;;-2.14;78.95;100501.78;1465505;89;22317;-79
2023/03/03 06:05:37;;;;;;;95.38;42.05;;;;;;;-2.05;79.38;100506.56;1469676;89;21474;-79
2023/03/03 06:08:23;;;;;;;94.50;44.67;;;;;;;-1.95;79.83;100511.77;1464865;89;21275;-80
2023/03/03 06:11:08;;;;;;;96.55;44.60;;;;;;;-1.88;79.48;100505.84;1467216;89;22884;-80
2023/03/03 06:13:53;;;;;;;81.05;39.03;;;;;;;-1.79;79.89;100505.44;1441322;89;21385;-81
2023/03/03 06:16:38;;;;;;;78.42;38.20;;;;;;;-1.68;79.59;100512.77;1463071;89;21452;-80
2023/03/03 06:19:24;;;;;;;77.20;39.25;;;;;;;-1.55;79.45;100515.22;1458739;89;21437;-80
2023/03/03 06:22:08;;;;;;;91.60;41.02;;;;;;;-1.43;79.07;100514.66;1455117;89;21415;-80
2023/03/03 06:24:35;;;;;;;79.22;41.58;;;;;;;-1.31;78.90;100513.25;1462945;89;21414;-80
2023/03/03 06:27:02;;;;;;;90.70;45.88;;;;;;;-1.20;78.70;100521.86;1470471;89;21333;-80
2023/03/03 06:29:28;;;;;;;87.97;46.00;;;;;;;-1.08;78.72;100523.05;1459688;89;21415;-79
2023/03/03 06:31:54;;;;;;;99.58;48.45;;;;;;;-0.99;78.53;100519.55;1459864;89;21340;-80
2023/03/03 06:34:20;;;;;;;96.15;50.92;;;;;;;-0.86;78.59;100517.67;1475304;88;22383;-79
2023/03/03 06:36:47;;;;;;;129.15;63.48;;;;;;;-0.74;78.40;100522.30;1465522;89;21334;-80
2023/03/03 06:39:14;;;;;;;123.70;64.37;;;;;;;-0.63;78.06;100518.73;1464215;89;21584;-80
2023/03/03 06:41:40;;;;;;;126.10;59.50;;;;;;;-0.52;77.99;100516.46;1461250;88;21848;-80
2023/03/03 06:44:06;;;;;;;113.20;51.53;;;;;;;-0.39;78.37;100518.45;1458923;89;21333;-80
2023/03/03 06:46:33;;;;;;;108.30;49.53;;;;;;;-0.28;78.61;100523.97;1460776;89;22737;-81
2023/03/03 06:48:59;;;;;;;99.20;51.20;;;;;;;-0.18;78.42;100517.38;1472502;89;21525;-80
2023/03/03 06:51:37;;;;;;;96.85;49.15;;;;;;;-0.03;78.07;100518.36;1462792;89;21816;-80
2023/03/03 06:54:14;;;;;;;90.70;43.38;;;;;;;0.12;77.85;100521.97;1466944;89;22361;-80
2023/03/03 06:56:42;;;;;;;82.10;44.80;;;;;;;0.31;77.92;100525.74;1463897;89;21458;-80
2023/03/03 06:59:16;;;;;;;78.52;40.73;;;;;;;0.46;77.59;100521.02;1462139;88;21400;-80
2023/03/03 07:01:44;;;;;;;78.45;39.80;;;;;;;0.63;76.83;100535.77;1466871;88;21267;-79
2023/03/03 07:04:32;;;;;;;75.40;39.33;;;;;;;0.79;76.55;100536.64;1463245;89;21533;-79
2023/03/03 07:07:21;;;;;;;70.52;36.73;;;;;;;0.98;76.30;100543.45;1461019;88;21289;-80
2023/03/03 07:09:53;;;;;;;75.55;37.88;;;;;;;1.17;75.72;100546.73;1468237;89;21497;-80
2023/03/03 07:23:41;;;;;;;61.87;31.13;;;;;;;1.99;73.61;100542.97;1420223;92;21482;-79
2023/03/03 07:26:29;;;;;;;58.90;33.57;;;;;;;2.09;72.71;100549.31;1415825;92;22415;-80
2023/03/03 07:29:32;;;;;;;63.50;33.00;;;;;;;2.18;72.56;100552.69;1413519;92;22550;-80
2023/03/03 07:32:01;;;;;;;61.60;33.07;;;;;;;2.29;72.30;100553.36;1420847;92;21588;-80
2023/03/03 07:34:47;;;;;;;69.07;35.43;;;;;;;2.38;71.57;100551.50;1421983;92;21759;-79
2023/03/03 07:37:24;;;;;;;66.20;32.60;;;;;;;2.48;71.29;100553.95;1403437;92;22348;-79
2023/03/03 07:39:51;;;;;;;58.73;30.30;;;;;;;2.60;70.68;100547.61;1411714;92;21710;-79
2023/03/03 07:42:43;;;;;;;60.60;31.00;;;;;;;2.70;69.07;100547.39;1409556;92;22741;-79
2023/03/03 07:45:32;;;;;;;54.50;31.30;;;;;;;2.78;69.41;100539.92;1415665;92;22573;-80
2023/03/03 07:48:25;;;;;;;79.53;47.27;;;;;;;2.85;68.29;100539.07;1414431;90;22246;-78
2023/03/03 07:50:51;;;;;;;67.70;33.13;;;;;;;3.03;69.63;100537.94;1425641;92;21451;-78
2023/03/03 07:53:28;;;;;;;55.93;31.00;;;;;;;3.21;69.77;100540.33;1459997;89;22543;-78
2023/03/03 07:55:55;;;;;;;54.97;29.70;;;;;;;3.32;68.80;100540.00;1463126;89;22501;-76
2023/03/03 07:58:26;;;;;;;56.43;31.40;;;;;;;3.46;68.70;100539.59;1454910;89;21517;-83
2023/03/03 08:01:41;;;;;;;54.53;29.70;;;;;;;3.55;67.08;100541.14;1460623;89;21729;-83
2023/03/03 08:04:24;;;;;;;55.77;30.60;;;;;;;3.71;67.51;100547.98;1461330;88;21495;-82
2023/03/03 08:06:55;;;;;;;47.67;27.77;;;;;;;3.91;67.97;100536.19;1461496;88;22448;-76
2023/03/03 08:09:29;;;;;;;49.42;28.02;;;;;;;4.06;65.27;100542.56;1463758;89;21632;-81
2023/03/03 08:12:09;;;;;;;50.27;30.63;;;;;;;4.02;63.10;100539.77;1465976;88;22279;-81
2023/03/03 08:14:37;;;;;;;50.90;28.47;;;;;;;4.18;65.48;100540.90;1461630;89;21705;-80
2023/03/03 08:17:21;;;;;;;52.93;30.43;;;;;;;4.32;63.75;100551.76;1464406;89;21703;-81
2023/03/03 08:19:49;;;;;;;64.40;33.00;;;;;;;4.32;63.75;100551.76;1453745;89;22813;-80
2023/03/03 08:22:20;;;;;;;55.73;30.17;;;;;;;4.36;63.23;100549.28;1466530;89;21764;-81
2023/03/03 08:24:46;;;;;;;52.58;31.48;;;;;;;4.33;61.41;100542.94;1459822;89;22794;-81
2023/03/03 08:27:12;;;;;;;56.67;31.43;;;;;;;4.51;61.83;100545.60;1466406;89;21333;-81
2023/03/03 08:29:38;;;;;;;58.30;30.53;;;;;;;4.51;61.83;100545.60;1452020;89;22183;-80
2023/03/03 08:32:05;;;;;;;60.67;31.10;;;;;;;4.73;62.08;100550.69;1468538;89;22288;-81
2023/03/03 08:34:31;;;;;;;53.47;29.90;;;;;;;4.95;62.88;100547.41;1462336;88;22169;-80
2023/03/03 08:37:00;;;;;;;52.50;30.30;;;;;;;5.14;62.08;100546.91;1467724;89;23076;-80
2023/03/03 08:39:26;;;;;;;50.17;28.10;;;;;;;5.31;62.12;100543.08;1464227;89;22329;-80
2023/03/03 08:41:52;;;;;;;45.27;27.40;;;;;;;5.53;61.84;100533.18;1460971;89;22034;-79
2023/03/03 08:44:19;;;;;;;45.23;26.13;;;;;;;5.64;57.99;100526.66;1463310;88;22137;-80
2023/03/03 08:46:45;;;;;;;43.17;25.33;;;;;;;5.71;57.38;100530.50;1463036;88;22210;-81
2023/03/03 08:49:12;;;;;;;46.13;27.07;;;;;;;5.79;58.02;100532.56;1458386;89;22987;-81
2023/03/03 08:51:44;;;;;;;51.17;27.13;;;;;;;5.77;56.80;100529.20;1457102;88;21326;-82
2023/03/03 08:54:10;;;;;;;43.03;25.70;;;;;;;6.01;57.24;100530.05;1461429;89;22345;-82
2023/03/03 08:56:36;;;;;;;45.10;26.27;;;;;;;6.21;55.14;100525.88;1468464;88;21362;-82
2023/03/03 08:59:03;;;;;;;49.97;27.90;;;;;;;6.21;55.14;100525.88;1464242;89;21987;-83
2023/03/03 09:01:31;;;;;;;44.13;26.03;;;;;;;6.33;55.13;100534.64;1465556;89;21407;-82
2023/03/03 09:03:58;;;;;;;45.57;27.13;;;;;;;6.51;56.09;100529.75;1457750;89;21849;-81
2023/03/03 09:06:24;;;;;;;47.70;29.23;;;;;;;6.42;54.29;100529.16;1464293;89;22170;-83
2023/03/03 09:08:50;;;;;;;42.57;24.87;;;;;;;6.47;53.48;100530.92;1461458;89;21377;-82
2023/03/03 09:11:25;;;;;;;57.97;29.90;;;;;;;6.71;54.38;100525.08;1461004;88;21534;-81
2023/03/03 09:14:12;;;;;;;44.47;24.13;;;;;;;6.89;53.94;100531.17;1541089;88;21428;-81
2023/03/03 09:16:51;;;;;;;47.70;25.17;;;;;;;7.01;52.70;100530.19;1547787;89;21187;-81
2023/03/03 09:19:23;;;;;;;43.57;23.33;;;;;;;7.13;52.28;100533.62;1547156;89;21261;-82
2023/03/03 09:21:56;;;;;;;37.90;22.00;;;;;;;7.31;53.31;100532.63;1541453;88;21230;-80
2023/03/03 09:24:28;;;;;;;47.00;25.40;;;;;;;7.40;52.53;100537.17;1547192;89;21284;-81
2023/03/03 09:26:58;;;;;;;40.37;25.30;;;;;;;7.49;52.43;100529.83;1385176;89;22425;-81
2023/03/03 09:29:30;;;;;;;43.77;25.03;;;;;;;7.80;53.78;100528.16;1391843;89;21541;-84
2023/03/03 09:32:00;;;;;;;36.20;23.03;;;;;;;8.04;53.18;100525.27;1547331;88;21971;-82
2023/03/03 09:34:41;;;;;;;43.20;26.67;;;;;;;8.18;50.55;100527.23;1547319;89;22254;-81
2023/03/03 09:37:36;;;;;;;39.10;23.90;;;;;;;8.45;49.59;100531.97;1541189;89;21275;-82
2023/03/03 09:40:14;;;;;;;35.77;22.73;;;;;;;9.03;48.95;100529.09;1502364;89;21445;-82
2023/03/03 09:43:11;;;;;;;37.30;22.90;;;;;;;9.61;48.76;100522.19;1401849;89;21290;-81
2023/03/03 09:46:09;;;;;;;33.07;21.13;;;;;;;9.95;45.88;100525.23;1539869;89;21551;-78
2023/03/03 09:48:59;;;;;;;30.77;19.80;;;;;;;10.13;45.66;100522.72;1539555;89;22156;-78
2023/03/03 09:51:48;;;;;;;32.17;18.77;;;;;;;11.03;45.69;100522.61;1529471;89;21378;-78
2023/03/03 09:54:52;;;;;;;30.27;18.93;;;;;;;11.68;44.58;100519.30;1451110;89;21377;-77
2023/03/03 09:57:33;;;;;;;32.73;19.87;;;;;;;11.84;41.54;100513.28;1459620;88;22412;-78
2023/03/03 10:00:14;;;;;;;36.55;20.95;;;;;;;12.12;40.06;100518.50;1460869;89;21547;-76
2023/03/03 10:03:25;;;;;;;30.73;18.73;;;;;;;12.82;40.18;100519.70;1462407;89;22413;-79
2023/03/03 10:06:21;;;;;;;22.98;13.75;;;;;;;12.92;41.24;100514.25;1460978;89;22359;-79
2023/03/03 10:09:12;;;;;;;22.57;16.03;;;;;;;12.94;40.16;100514.44;1460118;88;21363;-79
2023/03/03 10:11:47;;;;;;;20.77;13.70;;;;;;;13.23;40.18;100506.55;1461062;89;21861;-78
2023/03/03 10:14:34;;;;;;;25.13;15.23;;;;;;;13.14;37.78;100505.69;1453131;89;21474;-79
2023/03/03 10:21:47;;;;;;;24.10;16.60;;;;;;;13.60;38.76;100502.64;1447203;93;22102;-78
2023/03/03 10:24:50;;;;;;;24.57;15.63;;;;;;;13.04;37.83;100499.20;1399907;93;21237;-79
2023/03/03 10:27:59;;;;;;;24.10;16.63;;;;;;;13.06;40.65;100499.88;1476895;93;21225;-85
2023/03/03 10:30:54;;;;;;;21.27;14.83;;;;;;;13.02;39.41;100499.85;1370113;94;22210;-88
2023/03/03 10:33:40;;;;;;;26.50;17.17;;;;;;;13.31;36.96;100494.64;1389228;94;21543;-86
2023/03/03 10:36:21;;;;;;;28.43;20.17;;;;;;;12.57;38.17;100497.05;1327546;95;21583;-85
2023/03/03 10:39:01;;;;;;;24.92;18.48;;;;;;;12.27;38.63;100486.42;1336155;92;22435;-85
2023/03/03 10:42:01;;;;;;;30.92;19.95;;;;;;;11.96;39.81;100482.07;1365095;93;21273;-86
2023/03/03 10:45:08;;;;;;;31.62;19.62;;;;;;;11.68;38.73;100476.88;1405142;93;21413;-86
2023/03/03 10:48:16;;;;;;;31.07;21.90;;;;;;;12.31;38.20;100476.31;1406296;93;22351;-83
2023/03/03 10:51:38;;;;;;;34.23;22.53;;;;;;;12.86;37.90;100471.43;1405091;93;21420;-87
2023/03/03 10:54:43;;;;;;;29.57;19.63;;;;;;;13.13;38.72;100473.48;1401529;93;21646;-87
2023/03/03 10:57:46;;;;;;;34.27;20.47;;;;;;;13.26;36.64;100469.89;1435084;89;21376;-87
2023/03/03 11:00:28;;;;;;;34.17;22.77;;;;;;;13.42;35.86;100465.08;1463392;88;22442;-86
2023/03/03 11:03:17;;;;;;;30.30;21.80;;;;;;;13.77;37.45;100458.59;1463771;89;21474;-88
2023/03/03 11:06:01;;;;;;;30.53;19.37;;;;;;;13.60;36.59;100453.45;1459996;88;21451;-88
2023/03/03 11:08:44;;;;;;;33.03;20.60;;;;;;;13.99;37.79;100446.44;1464901;89;21510;-86
2023/03/03 11:11:30;;;;;;;31.20;19.97;;;;;;;14.40;37.86;100437.50;1463206;88;21452;-85
2023/03/03 11:14:34;;;;;;;21.07;15.93;;;;;;;14.55;34.99;100438.97;1462993;88;22493;-86
2023/03/03 11:17:23;;;;;;;27.10;19.20;;;;;;;13.83;34.84;100441.13;1462256;89;21370;-87
2023/03/03 11:20:09;;;;;;;26.03;17.50;;;;;;;14.28;37.41;100434.89;1459735;89;21577;-87
2023/03/03 11:22:56;;;;;;;26.73;19.07;;;;;;;14.20;36.30;100431.74;1462091;89;21289;-87
2023/03/03 11:25:43;;;;;;;27.80;19.83;;;;;;;14.28;36.82;100425.57;1456694;88;21429;-87
2023/03/03 11:28:57;;;;;;;30.43;20.63;;;;;;;14.10;37.45;100423.14;1461225;89;21451;-85
2023/03/03 11:32:18;;;;;;;25.93;18.63;;;;;;;14.70;37.64;100421.74;1463182;88;22421;-87
2023/03/03 11:35:18;;;;;;;;;;;;;;;15.14;36.79;100410.50;1463347;89;22317;-86
2023/03/03 11:38:31;;;;;;;28.37;19.57;;;;;;;15.06;34.13;100412.20;1469360;88;20291;-82
2023/03/03 11:41:08;;;;;;;26.17;18.70;;;;;;;15.67;35.86;100416.20;1464981;88;21465;-83
2023/03/03 11:43:48;;;;;;;24.13;16.10;;;;;;;15.91;35.69;100409.00;1465453;89;21436;-83
2023/03/03 11:46:36;;;;;;;22.13;15.83;;;;;;;15.80;35.31;100404.97;1465650;89;21355;-83
2023/03/03 11:49:08;;;;;;;26.53;17.67;;;;;;;15.78;35.60;100410.47;1426609;89;22442;-82
2023/03/03 11:51:48;;;;;;;22.50;15.53;;;;;;;15.64;35.69;100399.23;1464107;88;21370;-84
2023/03/03 11:59:13;;;;;;;19.87;15.03;;;;;;;15.74;36.19;100398.52;1547727;89;22142;-82
2023/03/03 12:02:31;;;;;;;23.83;16.73;;;;;;;15.25;33.62;100400.25;1390293;89;21371;-81
2023/03/03 12:09:37;;;;;;;20.03;16.77;;;;;;;15.36;36.06;100393.64;1408191;90;21383;-79